sensor_id;sensor_type;location;lat;lon;timestamp;P1;durP1;ratioP1;P2;durP2;ratioP2
26600;SDS011;14241;49.260;10.496;2023-06-01T00:00:06;4.70;;;2.07;;
26600;SDS011;14241;49.260;10.496;2023-06-01T00:02:34;5.43;;;2.22;;
26600;SDS011;14241;49.260;10.496;2023-06-01T00:05:00;4.65;;;2.13;;
26600;SDS011;14241;49.260;10.496;2023-06-01T00:07:25;4.28;;;2.38;;
26600;SDS011;14241;49.260;10.496;2023-06-01T00:09:51;3.93;;;2.03;;
26600;SDS011;14241;49.260;10.496;2023-06-01T00:12:16;3.90;;;2.10;;
26600;SDS011;14241;49.260;10.496;2023-06-01T00:14:41;8.83;;;2.23;;
26600;SDS011;14241;49.260;10.496;2023-06-01T00:17:06;5.55;;;1.95;;
26600;SDS011;14241;49.260;10.496;2023-06-01T00:19:32;5.05;;;2.10;;
26600;SDS011;14241;49.260;10.496;2023-06-01T00:22:00;5.05;;;2.00;;
26600;SDS011;14241;49.260;10.496;2023-06-01T00:24:25;5.10;;;2.08;;
26600;SDS011;14241;49.260;10.496;2023-06-01T00:26:51;2.97;;;1.67;;
26600;SDS011;14241;49.260;10.496;2023-06-01T00:29:16;6.22;;;2.10;;
26600;SDS011;14241;49.260;10.496;2023-06-01T00:31:41;4.03;;;2.20;;
26600;SDS011;14241;49.260;10.496;2023-06-01T00:34:07;4.05;;;2.35;;
26600;SDS011;14241;49.260;10.496;2023-06-01T00:36:33;4.32;;;2.20;;
26600;SDS011;14241;49.260;10.496;2023-06-01T00:38:58;2.35;;;1.77;;
26600;SDS011;14241;49.260;10.496;2023-06-01T00:41:27;5.75;;;1.70;;
26600;SDS011;14241;49.260;10.496;2023-06-01T00:43:52;6.30;;;2.17;;
26600;SDS011;14241;49.260;10.496;2023-06-01T00:46:18;6.37;;;2.07;;
26600;SDS011;14241;49.260;10.496;2023-06-01T00:48:43;10.48;;;2.20;;
26600;SDS011;14241;49.260;10.496;2023-06-01T00:51:08;6.50;;;2.10;;
26600;SDS011;14241;49.260;10.496;2023-06-01T00:53:33;5.32;;;2.10;;
26600;SDS011;14241;49.260;10.496;2023-06-01T00:55:59;3.80;;;2.13;;
26600;SDS011;14241;49.260;10.496;2023-06-01T00:58:24;4.30;;;2.13;;
26600;SDS011;14241;49.260;10.496;2023-06-01T01:00:50;5.38;;;2.22;;
26600;SDS011;14241;49.260;10.496;2023-06-01T01:03:18;4.03;;;2.10;;
26600;SDS011;14241;49.260;10.496;2023-06-01T01:05:43;5.32;;;2.33;;
26600;SDS011;14241;49.260;10.496;2023-06-01T01:11:21;3.25;;;1.70;;
26600;SDS011;14241;49.260;10.496;2023-06-01T01:13:55;3.58;;;1.90;;
26600;SDS011;14241;49.260;10.496;2023-06-01T01:18:57;5.40;;;1.98;;
26600;SDS011;14241;49.260;10.496;2023-06-01T01:21:25;5.22;;;2.38;;
26600;SDS011;14241;49.260;10.496;2023-06-01T01:26:52;5.00;;;2.22;;
26600;SDS011;14241;49.260;10.496;2023-06-01T01:29:21;3.30;;;1.92;;
26600;SDS011;14241;49.260;10.496;2023-06-01T01:31:48;5.43;;;2.33;;
26600;SDS011;14241;49.260;10.496;2023-06-01T01:34:14;6.00;;;2.10;;
26600;SDS011;14241;49.260;10.496;2023-06-01T01:36:39;6.07;;;2.23;;
26600;SDS011;14241;49.260;10.496;2023-06-01T01:39:05;4.07;;;2.10;;
26600;SDS011;14241;49.260;10.496;2023-06-01T01:41:30;4.63;;;1.90;;
26600;SDS011;14241;49.260;10.496;2023-06-01T01:43:56;4.27;;;1.93;;
26600;SDS011;14241;49.260;10.496;2023-06-01T01:46:30;4.18;;;2.13;;
26600;SDS011;14241;49.260;10.496;2023-06-01T01:51:35;4.65;;;2.10;;
26600;SDS011;14241;49.260;10.496;2023-06-01T01:54:03;4.90;;;2.00;;
26600;SDS011;14241;49.260;10.496;2023-06-01T01:56:29;3.72;;;1.85;;
26600;SDS011;14241;49.260;10.496;2023-06-01T01:58:55;5.00;;;2.30;;
26600;SDS011;14241;49.260;10.496;2023-06-01T02:01:20;6.95;;;2.30;;
26600;SDS011;14241;49.260;10.496;2023-06-01T02:03:45;4.93;;;2.30;;
26600;SDS011;14241;49.260;10.496;2023-06-01T02:06:11;5.37;;;2.00;;
26600;SDS011;14241;49.260;10.496;2023-06-01T02:08:36;4.83;;;2.10;;
26600;SDS011;14241;49.260;10.496;2023-06-01T02:11:01;7.30;;;2.27;;
26600;SDS011;14241;49.260;10.496;2023-06-01T02:13:26;4.63;;;2.07;;
26600;SDS011;14241;49.260;10.496;2023-06-01T02:15:53;3.03;;;1.83;;
26600;SDS011;14241;49.260;10.496;2023-06-01T02:18:18;5.73;;;2.27;;
26600;SDS011;14241;49.260;10.496;2023-06-01T02:20:44;4.65;;;1.90;;
26600;SDS011;14241;49.260;10.496;2023-06-01T02:23:10;4.50;;;1.95;;
26600;SDS011;14241;49.260;10.496;2023-06-01T02:25:35;4.18;;;2.00;;
26600;SDS011;14241;49.260;10.496;2023-06-01T02:28:00;7.50;;;1.80;;
26600;SDS011;14241;49.260;10.496;2023-06-01T02:30:26;4.28;;;2.00;;
26600;SDS011;14241;49.260;10.496;2023-06-01T02:32:52;5.65;;;2.20;;
26600;SDS011;14241;49.260;10.496;2023-06-01T02:35:17;5.25;;;2.10;;
26600;SDS011;14241;49.260;10.496;2023-06-01T02:37:42;7.72;;;2.30;;
26600;SDS011;14241;49.260;10.496;2023-06-01T02:40:08;4.40;;;2.10;;
26600;SDS011;14241;49.260;10.496;2023-06-01T02:42:37;5.07;;;2.33;;
26600;SDS011;14241;49.260;10.496;2023-06-01T02:45:02;4.13;;;1.90;;
26600;SDS011;14241;49.260;10.496;2023-06-01T02:47:29;5.43;;;2.17;;
26600;SDS011;14241;49.260;10.496;2023-06-01T02:49:54;4.50;;;2.03;;
26600;SDS011;14241;49.260;10.496;2023-06-01T02:52:19;5.70;;;2.17;;
26600;SDS011;14241;49.260;10.496;2023-06-01T02:54:44;4.72;;;1.95;;
26600;SDS011;14241;49.260;10.496;2023-06-01T02:57:10;5.40;;;2.30;;
26600;SDS011;14241;49.260;10.496;2023-06-01T02:59:35;4.47;;;2.80;;
26600;SDS011;14241;49.260;10.496;2023-06-01T03:02:00;5.90;;;2.73;;
26600;SDS011;14241;49.260;10.496;2023-06-01T03:04:25;9.57;;;2.57;;
26600;SDS011;14241;49.260;10.496;2023-06-01T03:06:53;5.57;;;2.30;;
26600;SDS011;14241;49.260;10.496;2023-06-01T03:09:19;7.80;;;2.58;;
26600;SDS011;14241;49.260;10.496;2023-06-01T03:11:44;6.53;;;2.60;;
26600;SDS011;14241;49.260;10.496;2023-06-01T03:14:09;3.63;;;2.20;;
26600;SDS011;14241;49.260;10.496;2023-06-01T03:16:34;5.72;;;2.45;;
26600;SDS011;14241;49.260;10.496;2023-06-01T03:19:00;5.78;;;2.45;;
26600;SDS011;14241;49.260;10.496;2023-06-01T03:21:25;5.13;;;2.35;;
26600;SDS011;14241;49.260;10.496;2023-06-01T03:23:52;5.90;;;2.47;;
26600;SDS011;14241;49.260;10.496;2023-06-01T03:26:17;5.87;;;2.20;;
26600;SDS011;14241;49.260;10.496;2023-06-01T03:28:46;3.90;;;2.03;;
26600;SDS011;14241;49.260;10.496;2023-06-01T03:31:11;3.97;;;2.40;;
26600;SDS011;14241;49.260;10.496;2023-06-01T03:33:37;7.88;;;2.58;;
26600;SDS011;14241;49.260;10.496;2023-06-01T03:36:03;4.68;;;2.50;;
26600;SDS011;14241;49.260;10.496;2023-06-01T03:38:29;4.10;;;2.10;;
26600;SDS011;14241;49.260;10.496;2023-06-01T03:40:55;9.10;;;2.22;;
26600;SDS011;14241;49.260;10.496;2023-06-01T03:43:20;3.20;;;2.28;;
26600;SDS011;14241;49.260;10.496;2023-06-01T03:45:46;6.90;;;2.33;;
26600;SDS011;14241;49.260;10.496;2023-06-01T03:48:11;8.35;;;2.60;;
26600;SDS011;14241;49.260;10.496;2023-06-01T03:50:36;5.20;;;2.55;;
26600;SDS011;14241;49.260;10.496;2023-06-01T03:53:01;5.38;;;2.50;;
26600;SDS011;14241;49.260;10.496;2023-06-01T03:55:27;7.93;;;2.47;;
26600;SDS011;14241;49.260;10.496;2023-06-01T03:57:52;6.38;;;2.45;;
26600;SDS011;14241;49.260;10.496;2023-06-01T04:00:17;6.70;;;2.37;;
26600;SDS011;14241;49.260;10.496;2023-06-01T04:02:53;7.00;;;2.27;;
26600;SDS011;14241;49.260;10.496;2023-06-01T04:05:19;5.10;;;2.50;;
26600;SDS011;14241;49.260;10.496;2023-06-01T04:07:46;4.35;;;2.33;;
26600;SDS011;14241;49.260;10.496;2023-06-01T04:10:11;2.75;;;2.17;;
26600;SDS011;14241;49.260;10.496;2023-06-01T04:12:39;9.02;;;2.35;;
26600;SDS011;14241;49.260;10.496;2023-06-01T04:15:04;5.10;;;2.05;;
26600;SDS011;14241;49.260;10.496;2023-06-01T04:17:29;6.35;;;2.30;;
26600;SDS011;14241;49.260;10.496;2023-06-01T04:19:55;4.93;;;2.30;;
26600;SDS011;14241;49.260;10.496;2023-06-01T04:22:20;3.50;;;2.20;;
26600;SDS011;14241;49.260;10.496;2023-06-01T04:24:45;5.88;;;2.50;;
26600;SDS011;14241;49.260;10.496;2023-06-01T04:27:10;5.33;;;2.30;;
26600;SDS011;14241;49.260;10.496;2023-06-01T04:29:42;4.60;;;2.42;;
26600;SDS011;14241;49.260;10.496;2023-06-01T04:32:09;4.72;;;2.22;;
26600;SDS011;14241;49.260;10.496;2023-06-01T04:34:34;6.05;;;2.53;;
26600;SDS011;14241;49.260;10.496;2023-06-01T04:37:00;6.25;;;2.53;;
26600;SDS011;14241;49.260;10.496;2023-06-01T04:39:25;6.70;;;2.38;;
26600;SDS011;14241;49.260;10.496;2023-06-01T04:41:53;3.42;;;2.53;;
26600;SDS011;14241;49.260;10.496;2023-06-01T04:44:18;8.07;;;2.70;;
26600;SDS011;14241;49.260;10.496;2023-06-01T04:46:43;4.40;;;2.50;;
26600;SDS011;14241;49.260;10.496;2023-06-01T04:49:09;4.65;;;2.67;;
26600;SDS011;14241;49.260;10.496;2023-06-01T04:51:37;4.05;;;2.38;;
26600;SDS011;14241;49.260;10.496;2023-06-01T04:54:03;6.20;;;2.55;;
26600;SDS011;14241;49.260;10.496;2023-06-01T04:56:29;4.90;;;2.53;;
26600;SDS011;14241;49.260;10.496;2023-06-01T04:58:55;4.07;;;2.23;;
26600;SDS011;14241;49.260;10.496;2023-06-01T05:01:23;7.07;;;2.58;;
26600;SDS011;14241;49.260;10.496;2023-06-01T05:03:50;6.00;;;2.42;;
26600;SDS011;14241;49.260;10.496;2023-06-01T05:06:16;4.78;;;2.75;;
26600;SDS011;14241;49.260;10.496;2023-06-01T05:08:42;5.47;;;2.45;;
26600;SDS011;14241;49.260;10.496;2023-06-01T05:11:08;3.20;;;2.22;;
26600;SDS011;14241;49.260;10.496;2023-06-01T05:13:34;4.75;;;2.35;;
26600;SDS011;14241;49.260;10.496;2023-06-01T05:15:59;7.45;;;2.70;;
26600;SDS011;14241;49.260;10.496;2023-06-01T05:18:24;7.13;;;2.37;;
26600;SDS011;14241;49.260;10.496;2023-06-01T05:20:50;7.65;;;2.58;;
26600;SDS011;14241;49.260;10.496;2023-06-01T05:23:15;5.75;;;2.47;;
26600;SDS011;14241;49.260;10.496;2023-06-01T05:25:40;5.32;;;2.17;;
26600;SDS011;14241;49.260;10.496;2023-06-01T05:28:06;6.53;;;2.13;;
26600;SDS011;14241;49.260;10.496;2023-06-01T05:30:31;5.72;;;2.20;;
26600;SDS011;14241;49.260;10.496;2023-06-01T05:32:56;7.37;;;2.10;;
26600;SDS011;14241;49.260;10.496;2023-06-01T05:35:22;5.17;;;2.03;;
26600;SDS011;14241;49.260;10.496;2023-06-01T05:37:47;4.93;;;2.30;;
26600;SDS011;14241;49.260;10.496;2023-06-01T05:40:12;3.97;;;1.77;;
26600;SDS011;14241;49.260;10.496;2023-06-01T05:42:38;4.15;;;2.10;;
26600;SDS011;14241;49.260;10.496;2023-06-01T05:45:03;5.33;;;2.07;;
26600;SDS011;14241;49.260;10.496;2023-06-01T05:47:28;4.82;;;2.30;;
26600;SDS011;14241;49.260;10.496;2023-06-01T05:49:53;5.60;;;2.13;;
26600;SDS011;14241;49.260;10.496;2023-06-01T05:52:19;8.40;;;2.13;;
26600;SDS011;14241;49.260;10.496;2023-06-01T05:54:44;2.30;;;1.67;;
26600;SDS011;14241;49.260;10.496;2023-06-01T05:57:09;4.60;;;1.90;;
26600;SDS011;14241;49.260;10.496;2023-06-01T05:59:34;7.43;;;2.00;;
26600;SDS011;14241;49.260;10.496;2023-06-01T06:02:00;4.40;;;2.13;;
26600;SDS011;14241;49.260;10.496;2023-06-01T06:04:27;6.47;;;2.15;;
26600;SDS011;14241;49.260;10.496;2023-06-01T06:06:53;5.78;;;2.33;;
26600;SDS011;14241;49.260;10.496;2023-06-01T06:09:18;11.10;;;2.20;;
26600;SDS011;14241;49.260;10.496;2023-06-01T06:11:43;6.07;;;1.80;;
26600;SDS011;14241;49.260;10.496;2023-06-01T06:14:09;7.13;;;2.42;;
26600;SDS011;14241;49.260;10.496;2023-06-01T06:16:36;5.55;;;2.17;;
26600;SDS011;14241;49.260;10.496;2023-06-01T06:19:01;3.40;;;1.80;;
26600;SDS011;14241;49.260;10.496;2023-06-01T06:21:27;4.82;;;2.10;;
26600;SDS011;14241;49.260;10.496;2023-06-01T06:23:52;4.23;;;1.63;;
26600;SDS011;14241;49.260;10.496;2023-06-01T06:26:18;3.88;;;1.60;;
26600;SDS011;14241;49.260;10.496;2023-06-01T06:28:43;5.17;;;1.70;;
26600;SDS011;14241;49.260;10.496;2023-06-01T06:31:08;3.40;;;1.85;;
26600;SDS011;14241;49.260;10.496;2023-06-01T06:33:34;4.70;;;1.93;;
26600;SDS011;14241;49.260;10.496;2023-06-01T06:36:00;4.78;;;1.98;;
26600;SDS011;14241;49.260;10.496;2023-06-01T06:38:25;4.43;;;1.63;;
26600;SDS011;14241;49.260;10.496;2023-06-01T06:40:50;5.70;;;2.03;;
26600;SDS011;14241;49.260;10.496;2023-06-01T06:43:16;7.32;;;1.83;;
26600;SDS011;14241;49.260;10.496;2023-06-01T06:45:41;7.63;;;1.77;;
26600;SDS011;14241;49.260;10.496;2023-06-01T06:48:06;2.97;;;2.00;;
26600;SDS011;14241;49.260;10.496;2023-06-01T06:50:32;7.33;;;2.00;;
26600;SDS011;14241;49.260;10.496;2023-06-01T06:52:57;4.40;;;1.90;;
26600;SDS011;14241;49.260;10.496;2023-06-01T06:55:24;6.13;;;1.65;;
26600;SDS011;14241;49.260;10.496;2023-06-01T06:57:49;4.33;;;1.70;;
26600;SDS011;14241;49.260;10.496;2023-06-01T07:00:14;6.25;;;1.90;;
26600;SDS011;14241;49.260;10.496;2023-06-01T07:02:40;12.07;;;2.00;;
26600;SDS011;14241;49.260;10.496;2023-06-01T07:05:06;4.78;;;2.13;;
26600;SDS011;14241;49.260;10.496;2023-06-01T07:07:33;6.10;;;1.98;;
26600;SDS011;14241;49.260;10.496;2023-06-01T07:09:58;7.17;;;1.93;;
26600;SDS011;14241;49.260;10.496;2023-06-01T07:12:23;4.63;;;1.80;;
26600;SDS011;14241;49.260;10.496;2023-06-01T07:14:49;7.20;;;2.20;;
26600;SDS011;14241;49.260;10.496;2023-06-01T07:17:14;4.10;;;1.80;;
26600;SDS011;14241;49.260;10.496;2023-06-01T07:19:39;3.95;;;1.70;;
26600;SDS011;14241;49.260;10.496;2023-06-01T07:22:05;8.35;;;1.70;;
26600;SDS011;14241;49.260;10.496;2023-06-01T07:24:30;4.05;;;1.38;;
26600;SDS011;14241;49.260;10.496;2023-06-01T07:26:56;4.47;;;1.70;;
26600;SDS011;14241;49.260;10.496;2023-06-01T07:29:22;3.60;;;1.70;;
26600;SDS011;14241;49.260;10.496;2023-06-01T07:31:49;6.90;;;1.73;;
26600;SDS011;14241;49.260;10.496;2023-06-01T07:34:14;5.97;;;2.00;;
26600;SDS011;14241;49.260;10.496;2023-06-01T07:36:40;6.47;;;1.63;;
26600;SDS011;14241;49.260;10.496;2023-06-01T07:39:06;4.95;;;1.55;;
26600;SDS011;14241;49.260;10.496;2023-06-01T07:41:32;7.30;;;1.80;;
26600;SDS011;14241;49.260;10.496;2023-06-01T07:43:58;3.28;;;1.50;;
26600;SDS011;14241;49.260;10.496;2023-06-01T07:46:23;5.50;;;1.80;;
26600;SDS011;14241;49.260;10.496;2023-06-01T07:48:48;5.97;;;1.70;;
26600;SDS011;14241;49.260;10.496;2023-06-01T07:51:13;4.70;;;1.70;;
26600;SDS011;14241;49.260;10.496;2023-06-01T07:53:38;4.30;;;1.90;;
26600;SDS011;14241;49.260;10.496;2023-06-01T07:56:04;3.33;;;1.70;;
26600;SDS011;14241;49.260;10.496;2023-06-01T07:58:29;7.13;;;2.00;;
26600;SDS011;14241;49.260;10.496;2023-06-01T08:00:54;2.90;;;1.88;;
26600;SDS011;14241;49.260;10.496;2023-06-01T08:03:19;6.43;;;1.85;;
26600;SDS011;14241;49.260;10.496;2023-06-01T08:05:46;3.90;;;1.55;;
26600;SDS011;14241;49.260;10.496;2023-06-01T08:08:11;2.97;;;1.80;;
26600;SDS011;14241;49.260;10.496;2023-06-01T08:10:37;3.35;;;1.85;;
26600;SDS011;14241;49.260;10.496;2023-06-01T08:13:04;3.38;;;1.50;;
26600;SDS011;14241;49.260;10.496;2023-06-01T08:15:29;4.15;;;1.70;;
26600;SDS011;14241;49.260;10.496;2023-06-01T08:17:56;4.18;;;1.55;;
26600;SDS011;14241;49.260;10.496;2023-06-01T08:20:21;5.20;;;1.80;;
26600;SDS011;14241;49.260;10.496;2023-06-01T08:22:48;6.25;;;1.80;;
26600;SDS011;14241;49.260;10.496;2023-06-01T08:25:13;7.72;;;1.98;;
26600;SDS011;14241;49.260;10.496;2023-06-01T08:27:39;6.03;;;1.60;;
26600;SDS011;14241;49.260;10.496;2023-06-01T08:30:05;5.60;;;1.88;;
26600;SDS011;14241;49.260;10.496;2023-06-01T08:32:31;3.65;;;2.05;;
26600;SDS011;14241;49.260;10.496;2023-06-01T08:34:56;6.25;;;1.88;;
26600;SDS011;14241;49.260;10.496;2023-06-01T08:37:22;2.87;;;2.10;;
26600;SDS011;14241;49.260;10.496;2023-06-01T08:39:47;5.03;;;1.65;;
26600;SDS011;14241;49.260;10.496;2023-06-01T08:42:19;4.72;;;1.65;;
26600;SDS011;14241;49.260;10.496;2023-06-01T08:44:46;5.47;;;1.63;;
26600;SDS011;14241;49.260;10.496;2023-06-01T08:47:11;3.75;;;1.80;;
26600;SDS011;14241;49.260;10.496;2023-06-01T08:49:37;4.40;;;1.83;;
26600;SDS011;14241;49.260;10.496;2023-06-01T08:52:06;5.97;;;2.40;;
26600;SDS011;14241;49.260;10.496;2023-06-01T08:54:32;5.05;;;2.25;;
26600;SDS011;14241;49.260;10.496;2023-06-01T08:57:00;4.32;;;1.65;;
26600;SDS011;14241;49.260;10.496;2023-06-01T08:59:28;3.13;;;1.80;;
26600;SDS011;14241;49.260;10.496;2023-06-01T09:01:53;4.28;;;1.95;;
26600;SDS011;14241;49.260;10.496;2023-06-01T09:04:19;11.65;;;2.00;;
26600;SDS011;14241;49.260;10.496;2023-06-01T09:06:44;7.50;;;1.70;;
26600;SDS011;14241;49.260;10.496;2023-06-01T09:09:09;4.07;;;1.70;;
26600;SDS011;14241;49.260;10.496;2023-06-01T09:11:38;10.98;;;2.13;;
26600;SDS011;14241;49.260;10.496;2023-06-01T09:14:18;5.70;;;2.08;;
26600;SDS011;14241;49.260;10.496;2023-06-01T09:16:45;2.90;;;1.65;;
26600;SDS011;14241;49.260;10.496;2023-06-01T09:19:10;4.15;;;1.95;;
26600;SDS011;14241;49.260;10.496;2023-06-01T09:21:35;4.03;;;2.10;;
26600;SDS011;14241;49.260;10.496;2023-06-01T09:24:19;3.43;;;1.67;;
26600;SDS011;14241;49.260;10.496;2023-06-01T09:26:48;3.15;;;1.35;;
26600;SDS011;14241;49.260;10.496;2023-06-01T09:29:14;4.60;;;1.60;;
26600;SDS011;14241;49.260;10.496;2023-06-01T09:31:43;6.38;;;1.88;;
26600;SDS011;14241;49.260;10.496;2023-06-01T09:34:10;4.57;;;2.33;;
26600;SDS011;14241;49.260;10.496;2023-06-01T09:36:36;5.75;;;1.95;;
26600;SDS011;14241;49.260;10.496;2023-06-01T09:41:27;4.15;;;1.92;;
26600;SDS011;14241;49.260;10.496;2023-06-01T09:43:56;3.50;;;1.55;;
26600;SDS011;14241;49.260;10.496;2023-06-01T09:46:22;4.88;;;1.50;;
26600;SDS011;14241;49.260;10.496;2023-06-01T09:48:47;6.00;;;2.10;;
26600;SDS011;14241;49.260;10.496;2023-06-01T09:51:24;3.15;;;1.85;;
26600;SDS011;14241;49.260;10.496;2023-06-01T09:53:54;2.65;;;1.48;;
26600;SDS011;14241;49.260;10.496;2023-06-01T09:56:19;5.65;;;1.55;;
26600;SDS011;14241;49.260;10.496;2023-06-01T09:58:45;3.97;;;1.63;;
26600;SDS011;14241;49.260;10.496;2023-06-01T10:01:10;3.53;;;1.70;;
26600;SDS011;14241;49.260;10.496;2023-06-01T10:03:40;3.47;;;1.58;;
26600;SDS011;14241;49.260;10.496;2023-06-01T10:06:06;3.25;;;1.98;;
26600;SDS011;14241;49.260;10.496;2023-06-01T10:08:32;5.78;;;1.23;;
26600;SDS011;14241;49.260;10.496;2023-06-01T10:10:57;3.75;;;1.48;;
26600;SDS011;14241;49.260;10.496;2023-06-01T10:13:22;4.70;;;1.40;;
26600;SDS011;14241;49.260;10.496;2023-06-01T10:15:52;4.85;;;1.50;;
26600;SDS011;14241;49.260;10.496;2023-06-01T10:18:18;3.00;;;1.45;;
26600;SDS011;14241;49.260;10.496;2023-06-01T10:20:43;2.72;;;1.30;;
26600;SDS011;14241;49.260;10.496;2023-06-01T10:23:08;2.60;;;1.30;;
26600;SDS011;14241;49.260;10.496;2023-06-01T10:25:38;4.73;;;1.50;;
26600;SDS011;14241;49.260;10.496;2023-06-01T10:28:05;3.38;;;1.55;;
26600;SDS011;14241;49.260;10.496;2023-06-01T10:30:32;3.03;;;1.48;;
26600;SDS011;14241;49.260;10.496;2023-06-01T10:32:57;2.35;;;1.08;;
26600;SDS011;14241;49.260;10.496;2023-06-01T10:40:35;2.88;;;1.55;;
26600;SDS011;14241;49.260;10.496;2023-06-01T10:43:00;3.00;;;1.40;;
26600;SDS011;14241;49.260;10.496;2023-06-01T10:48:03;6.45;;;1.70;;
26600;SDS011;14241;49.260;10.496;2023-06-01T10:50:29;5.90;;;1.55;;
26600;SDS011;14241;49.260;10.496;2023-06-01T10:52:55;3.30;;;1.73;;
26600;SDS011;14241;49.260;10.496;2023-06-01T10:55:22;3.17;;;1.42;;
26600;SDS011;14241;49.260;10.496;2023-06-01T10:57:47;3.42;;;1.30;;
26600;SDS011;14241;49.260;10.496;2023-06-01T11:00:19;2.77;;;1.40;;
26600;SDS011;14241;49.260;10.496;2023-06-01T11:07:57;2.90;;;1.35;;
26600;SDS011;14241;49.260;10.496;2023-06-01T11:13:10;4.78;;;1.50;;
26600;SDS011;14241;49.260;10.496;2023-06-01T11:15:35;4.97;;;1.50;;
26600;SDS011;14241;49.260;10.496;2023-06-01T11:18:40;2.47;;;1.60;;
26600;SDS011;14241;49.260;10.496;2023-06-01T11:20:47;6.47;;;1.60;;
26600;SDS011;14241;49.260;10.496;2023-06-01T11:23:12;3.28;;;1.80;;
26600;SDS011;14241;49.260;10.496;2023-06-01T11:25:40;2.67;;;1.55;;
26600;SDS011;14241;49.260;10.496;2023-06-01T11:28:06;2.88;;;1.20;;
26600;SDS011;14241;49.260;10.496;2023-06-01T11:30:34;3.17;;;1.58;;
26600;SDS011;14241;49.260;10.496;2023-06-01T11:33:00;2.85;;;1.45;;
26600;SDS011;14241;49.260;10.496;2023-06-01T11:35:27;2.25;;;1.50;;
26600;SDS011;14241;49.260;10.496;2023-06-01T11:37:53;3.50;;;1.30;;
26600;SDS011;14241;49.260;10.496;2023-06-01T11:40:19;3.05;;;1.17;;
26600;SDS011;14241;49.260;10.496;2023-06-01T11:42:45;3.95;;;1.58;;
26600;SDS011;14241;49.260;10.496;2023-06-01T11:45:14;3.30;;;1.17;;
26600;SDS011;14241;49.260;10.496;2023-06-01T11:47:39;2.88;;;1.38;;
26600;SDS011;14241;49.260;10.496;2023-06-01T11:50:05;4.17;;;1.40;;
26600;SDS011;14241;49.260;10.496;2023-06-01T11:52:30;4.72;;;1.80;;
26600;SDS011;14241;49.260;10.496;2023-06-01T11:55:01;6.40;;;1.50;;
26600;SDS011;14241;49.260;10.496;2023-06-01T11:57:27;3.78;;;1.60;;
26600;SDS011;14241;49.260;10.496;2023-06-01T11:59:52;3.60;;;1.50;;
26600;SDS011;14241;49.260;10.496;2023-06-01T12:07:24;5.22;;;1.50;;
26600;SDS011;14241;49.260;10.496;2023-06-01T12:09:50;7.32;;;1.92;;
26600;SDS011;14241;49.260;10.496;2023-06-01T12:12:16;4.07;;;1.40;;
26600;SDS011;14241;49.260;10.496;2023-06-01T12:14:42;1.75;;;1.27;;
26600;SDS011;14241;49.260;10.496;2023-06-01T12:17:08;2.85;;;1.60;;
26600;SDS011;14241;49.260;10.496;2023-06-01T12:19:43;5.15;;;1.80;;
26600;SDS011;14241;49.260;10.496;2023-06-01T12:22:09;4.27;;;1.63;;
26600;SDS011;14241;49.260;10.496;2023-06-01T12:24:34;2.78;;;1.50;;
26600;SDS011;14241;49.260;10.496;2023-06-01T12:27:00;3.27;;;1.50;;
26600;SDS011;14241;49.260;10.496;2023-06-01T12:32:00;3.28;;;1.67;;
26600;SDS011;14241;49.260;10.496;2023-06-01T12:34:25;3.30;;;1.33;;
26600;SDS011;14241;49.260;10.496;2023-06-01T12:36:50;4.03;;;1.50;;
26600;SDS011;14241;49.260;10.496;2023-06-01T12:39:15;6.10;;;1.73;;
26600;SDS011;14241;49.260;10.496;2023-06-01T12:41:56;3.63;;;1.50;;
26600;SDS011;14241;49.260;10.496;2023-06-01T12:44:21;6.00;;;1.50;;
26600;SDS011;14241;49.260;10.496;2023-06-01T12:46:47;2.72;;;1.42;;
26600;SDS011;14241;49.260;10.496;2023-06-01T12:49:14;10.82;;;1.58;;
26600;SDS011;14241;49.260;10.496;2023-06-01T12:51:40;3.78;;;1.60;;
26600;SDS011;14241;49.260;10.496;2023-06-01T12:54:05;5.87;;;1.97;;
26600;SDS011;14241;49.260;10.496;2023-06-01T12:56:30;5.03;;;1.70;;
26600;SDS011;14241;49.260;10.496;2023-06-01T12:58:55;3.70;;;1.37;;
26600;SDS011;14241;49.260;10.496;2023-06-01T13:01:21;5.40;;;1.42;;
26600;SDS011;14241;49.260;10.496;2023-06-01T13:03:46;3.92;;;1.45;;
26600;SDS011;14241;49.260;10.496;2023-06-01T13:06:12;4.35;;;1.50;;
26600;SDS011;14241;49.260;10.496;2023-06-01T13:08:37;5.00;;;1.40;;
26600;SDS011;14241;49.260;10.496;2023-06-01T13:11:03;2.95;;;1.60;;
26600;SDS011;14241;49.260;10.496;2023-06-01T13:13:28;6.20;;;1.42;;
26600;SDS011;14241;49.260;10.496;2023-06-01T13:15:54;2.85;;;1.50;;
26600;SDS011;14241;49.260;10.496;2023-06-01T13:18:19;4.80;;;1.60;;
26600;SDS011;14241;49.260;10.496;2023-06-01T13:20:44;2.28;;;1.25;;
26600;SDS011;14241;49.260;10.496;2023-06-01T13:23:10;6.13;;;2.00;;
26600;SDS011;14241;49.260;10.496;2023-06-01T13:25:37;2.72;;;1.42;;
26600;SDS011;14241;49.260;10.496;2023-06-01T13:28:03;2.20;;;1.67;;
26600;SDS011;14241;49.260;10.496;2023-06-01T13:30:28;7.72;;;1.73;;
26600;SDS011;14241;49.260;10.496;2023-06-01T13:32:57;5.78;;;1.75;;
26600;SDS011;14241;49.260;10.496;2023-06-01T13:35:22;3.00;;;1.50;;
26600;SDS011;14241;49.260;10.496;2023-06-01T13:37:48;4.25;;;1.52;;
26600;SDS011;14241;49.260;10.496;2023-06-01T13:40:13;4.15;;;1.48;;
26600;SDS011;14241;49.260;10.496;2023-06-01T13:42:39;4.28;;;1.73;;
26600;SDS011;14241;49.260;10.496;2023-06-01T13:45:04;6.73;;;1.90;;
26600;SDS011;14241;49.260;10.496;2023-06-01T13:47:30;6.53;;;1.67;;
26600;SDS011;14241;49.260;10.496;2023-06-01T13:49:55;6.03;;;1.50;;
26600;SDS011;14241;49.260;10.496;2023-06-01T13:52:20;6.22;;;1.70;;
26600;SDS011;14241;49.260;10.496;2023-06-01T13:54:45;4.63;;;1.53;;
26600;SDS011;14241;49.260;10.496;2023-06-01T13:57:11;7.03;;;1.43;;
26600;SDS011;14241;49.260;10.496;2023-06-01T13:59:36;4.53;;;1.70;;
26600;SDS011;14241;49.260;10.496;2023-06-01T14:02:02;4.63;;;1.90;;
26600;SDS011;14241;49.260;10.496;2023-06-01T14:04:28;3.28;;;1.80;;
26600;SDS011;14241;49.260;10.496;2023-06-01T14:06:53;5.13;;;1.70;;
26600;SDS011;14241;49.260;10.496;2023-06-01T14:09:20;1.42;;;1.33;;
26600;SDS011;14241;49.260;10.496;2023-06-01T14:11:45;6.03;;;2.10;;
26600;SDS011;14241;49.260;10.496;2023-06-01T14:14:11;2.20;;;1.40;;
26600;SDS011;14241;49.260;10.496;2023-06-01T14:16:36;2.83;;;1.50;;
26600;SDS011;14241;49.260;10.496;2023-06-01T14:19:02;7.55;;;2.13;;
26600;SDS011;14241;49.260;10.496;2023-06-01T14:21:28;6.35;;;1.67;;
26600;SDS011;14241;49.260;10.496;2023-06-01T14:23:54;2.88;;;1.67;;
26600;SDS011;14241;49.260;10.496;2023-06-01T14:26:19;4.32;;;1.98;;
26600;SDS011;14241;49.260;10.496;2023-06-01T14:28:44;6.60;;;1.57;;
26600;SDS011;14241;49.260;10.496;2023-06-01T14:31:10;2.20;;;1.60;;
26600;SDS011;14241;49.260;10.496;2023-06-01T14:33:35;4.90;;;2.15;;
26600;SDS011;14241;49.260;10.496;2023-06-01T14:36:01;4.53;;;1.50;;
26600;SDS011;14241;49.260;10.496;2023-06-01T14:38:26;4.00;;;1.77;;
26600;SDS011;14241;49.260;10.496;2023-06-01T14:40:51;3.00;;;1.50;;
26600;SDS011;14241;49.260;10.496;2023-06-01T14:43:17;4.60;;;1.58;;
26600;SDS011;14241;49.260;10.496;2023-06-01T14:45:42;6.00;;;1.43;;
26600;SDS011;14241;49.260;10.496;2023-06-01T14:48:07;3.73;;;1.57;;
26600;SDS011;14241;49.260;10.496;2023-06-01T14:50:32;4.23;;;1.40;;
26600;SDS011;14241;49.260;10.496;2023-06-01T14:52:57;6.63;;;1.20;;
26600;SDS011;14241;49.260;10.496;2023-06-01T14:55:27;3.35;;;1.40;;
26600;SDS011;14241;49.260;10.496;2023-06-01T14:57:52;2.53;;;1.63;;
26600;SDS011;14241;49.260;10.496;2023-06-01T15:00:18;2.88;;;1.52;;
26600;SDS011;14241;49.260;10.496;2023-06-01T15:02:43;4.65;;;1.80;;